Time;durP1;ratioP1;P1;durP2;ratioP2;P2;SDS_P1;SDS_P2;PMS_P1;PMS_P2;Temp;Humidity;BMP_temperature;BMP_pressure;BME280_temperature;BME280_humidity;BME280_pressure;Samples;Min_cycle;Max_cycle;Signal;HPM_P1;HPM_P2
2022/04/18 00:00:08;;;;;;;2.00;1.63;;;-2.20;99.90;;;;;;5161784;27;20537;-61
2022/04/18 00:02:46;;;;;;;1.90;1.60;;;-2.00;99.90;;;;;;5148611;27;20664;-62
2022/04/18 00:05:25;;;;;;;1.67;1.58;;;-2.00;99.90;;;;;;5129557;27;20529;-61
2022/04/18 00:08:05;;;;;;;2.38;1.60;;;-2.10;99.90;;;;;;5162171;27;20534;-61
2022/04/18 00:10:45;;;;;;;1.63;1.52;;;-2.10;99.90;;;;;;5137684;27;20576;-62
2022/04/18 00:13:24;;;;;;;2.35;2.15;;;-2.20;99.90;;;;;;5131012;27;20981;-61
2022/04/18 00:16:02;;;;;;;2.22;1.92;;;-2.30;99.90;;;;;;5117169;27;20620;-61
2022/04/18 00:18:40;;;;;;;2.45;2.00;;;-2.30;99.90;;;;;;5161977;27;20604;-62
2022/04/18 00:21:19;;;;;;;2.95;2.15;;;-2.30;99.90;;;;;;5150765;27;20539;-61
2022/04/18 00:23:57;;;;;;;2.35;2.13;;;-2.30;99.90;;;;;;5156385;27;20545;-62
2022/04/18 00:26:37;;;;;;;2.55;2.33;;;-2.30;99.90;;;;;;5162077;27;21038;-61
2022/04/18 00:29:15;;;;;;;2.05;1.95;;;-2.40;99.90;;;;;;5161739;27;20549;-61
2022/04/18 00:31:53;;;;;;;2.10;1.90;;;-2.40;99.90;;;;;;5156142;27;20582;-61
2022/04/18 00:34:33;;;;;;;2.25;2.00;;;-2.40;99.90;;;;;;5161906;27;20553;-61
2022/04/18 00:37:11;;;;;;;2.17;2.03;;;-2.50;99.90;;;;;;5162127;27;20561;-61
2022/04/18 00:39:49;;;;;;;2.33;2.17;;;-2.50;99.90;;;;;;5161885;27;21183;-61
2022/04/18 00:42:27;;;;;;;2.38;2.17;;;-2.40;99.90;;;;;;5151691;27;20819;-61
2022/04/18 00:45:07;;;;;;;2.90;2.35;;;-2.30;99.90;;;;;;5162763;27;20538;-62
2022/04/18 00:47:45;;;;;;;2.22;2.03;;;-2.20;99.90;;;;;;5162418;27;20549;-62
2022/04/18 00:50:24;;;;;;;2.00;1.80;;;-2.20;99.90;;;;;;5161986;27;20541;-61
2022/04/18 00:53:06;;;;;;;1.90;1.75;;;-2.30;99.90;;;;;;5140343;27;20560;-61
2022/04/18 00:55:45;;;;;;;2.13;2.00;;;-2.40;99.90;;;;;;5117717;27;20734;-61
2022/04/18 00:58:25;;;;;;;1.67;1.50;;;-2.50;99.90;;;;;;5149776;27;20533;-61
2022/04/18 01:01:05;;;;;;;2.00;1.65;;;-2.60;99.90;;;;;;5161318;27;20549;-61
2022/04/18 01:03:45;;;;;;;2.33;1.50;;;-2.70;99.90;;;;;;5162056;27;20998;-61
2022/04/18 01:06:24;;;;;;;1.90;1.80;;;-2.70;99.90;;;;;;5149919;27;20606;-61
2022/04/18 01:09:04;;;;;;;1.52;1.42;;;-2.70;99.90;;;;;;5161880;27;20673;-61
2022/04/18 01:11:44;;;;;;;1.92;1.50;;;-2.60;99.90;;;;;;5157376;27;20547;-61
2022/04/18 01:14:38;;;;;;;2.00;1.63;;;-2.60;99.90;;;;;;5162067;27;20549;-61
2022/04/18 01:17:40;;;;;;;2.10;1.90;;;-2.60;99.90;;;;;;5162180;27;20551;-61
2022/04/18 01:20:46;;;;;;;2.17;1.83;;;-2.80;99.90;;;;;;5161950;27;20558;-61
2022/04/18 01:23:46;;;;;;;1.90;1.80;;;-2.80;99.90;;;;;;5156587;27;20539;-61
2022/04/18 01:29:32;;;;;;;2.53;1.88;;;-2.90;99.90;;;;;;5161736;27;20543;-62
2022/04/18 01:32:10;;;;;;;1.92;1.67;;;-2.80;99.90;;;;;;5153387;27;21029;-61
2022/04/18 01:35:00;;;;;;;2.20;2.00;;;-2.70;99.90;;;;;;5162412;27;20310;-61
2022/04/18 01:37:44;;;;;;;1.65;1.55;;;-2.70;99.90;;;;;;5160848;27;20527;-61
2022/04/18 01:40:26;;;;;;;2.03;1.92;;;-2.80;99.90;;;;;;5132977;27;20564;-61
2022/04/18 01:43:04;;;;;;;2.10;1.90;;;-2.90;99.90;;;;;;5141639;27;20552;-61
2022/04/18 01:45:42;;;;;;;1.90;1.58;;;-3.00;99.90;;;;;;5145941;27;20539;-62
2022/04/18 01:48:37;;;;;;;1.80;1.70;;;-3.00;99.90;;;;;;5137861;27;20555;-61
2022/04/18 01:51:15;;;;;;;1.88;1.70;;;-3.00;99.90;;;;;;5160029;27;20537;-61
2022/04/18 01:53:53;;;;;;;2.65;1.80;;;-3.00;99.90;;;;;;5170003;27;20545;-61
2022/04/18 01:56:31;;;;;;;2.40;1.90;;;-3.00;99.90;;;;;;5162177;27;20542;-61
2022/04/18 01:59:10;;;;;;;1.67;1.58;;;-3.10;99.90;;;;;;5161586;27;20814;-61
2022/04/18 02:01:49;;;;;;;2.50;2.30;;;-3.10;99.90;;;;;;5156830;27;20663;-62
2022/04/18 02:04:29;;;;;;;4.22;3.83;;;-3.10;99.90;;;;;;5117056;27;20533;-61
2022/04/18 02:07:09;;;;;;;6.65;6.05;;;-3.10;99.90;;;;;;5161774;27;20551;-61
2022/04/18 02:09:49;;;;;;;2.40;2.20;;;-3.20;99.90;;;;;;5159415;27;20542;-62
2022/04/18 02:12:29;;;;;;;1.85;1.70;;;-3.20;99.90;;;;;;5151223;27;21055;-61
2022/04/18 02:15:12;;;;;;;2.15;2.05;;;-3.20;99.90;;;;;;5161574;27;20598;-61
2022/04/18 02:18:04;;;;;;;1.95;1.85;;;-3.30;99.90;;;;;;5162188;27;20617;-62
2022/04/18 02:20:43;;;;;;;3.67;1.98;;;-3.30;99.90;;;;;;5143412;27;21051;-61
2022/04/18 02:23:22;;;;;;;2.22;2.00;;;-3.30;99.90;;;;;;5140107;27;20552;-61
2022/04/18 02:26:01;;;;;;;1.73;1.63;;;-3.30;99.90;;;;;;5162149;27;21208;-61
2022/04/18 02:28:41;;;;;;;1.58;1.48;;;-3.30;99.90;;;;;;5162057;27;20608;-61
2022/04/18 02:31:22;;;;;;;1.60;1.50;;;-3.20;99.90;;;;;;5158943;27;20629;-61
2022/04/18 02:34:02;;;;;;;2.60;1.98;;;-3.20;99.90;;;;;;5162435;27;20537;-60
2022/04/18 02:36:40;;;;;;;1.17;1.17;;;-3.30;99.90;;;;;;5162026;27;20521;-62
2022/04/18 02:39:18;;;;;;;1.40;1.30;;;-3.40;99.90;;;;;;5159318;27;20543;-61
2022/04/18 02:41:57;;;;;;;1.58;1.48;;;-3.40;99.90;;;;;;5155631;27;20668;-61
2022/04/18 02:44:38;;;;;;;1.85;1.75;;;-3.50;99.90;;;;;;5172262;27;21048;-62
2022/04/18 02:47:16;;;;;;;1.55;1.45;;;-3.50;99.90;;;;;;5162226;27;20574;-61
2022/04/18 02:49:56;;;;;;;1.63;1.52;;;-3.50;99.90;;;;;;5161786;27;21003;-61
2022/04/18 02:52:35;;;;;;;2.00;1.80;;;-3.50;99.90;;;;;;5150123;27;20965;-61
2022/04/18 02:55:14;;;;;;;2.13;1.83;;;-3.60;99.90;;;;;;5161355;27;20553;-61
2022/04/18 02:57:52;;;;;;;4.40;1.98;;;-3.60;99.90;;;;;;5170689;27;20940;-61
2022/04/18 03:00:32;;;;;;;1.80;1.70;;;-3.60;99.90;;;;;;5161921;27;20639;-61
2022/04/18 03:03:10;;;;;;;1.80;1.70;;;-3.60;99.90;;;;;;5101568;27;20539;-61
2022/04/18 03:05:48;;;;;;;2.10;1.90;;;-3.60;99.90;;;;;;5162131;27;20545;-61
2022/04/18 03:08:28;;;;;;;1.80;1.70;;;-3.60;99.90;;;;;;5162339;27;20974;-61
2022/04/18 03:11:07;;;;;;;2.25;2.05;;;-3.60;99.90;;;;;;5096641;27;20560;-62
2022/04/18 03:13:49;;;;;;;3.95;1.75;;;-3.60;99.90;;;;;;5158983;27;20549;-61
2022/04/18 03:16:50;;;;;;;2.40;2.20;;;-3.50;99.90;;;;;;5161171;27;20973;-61
2022/04/18 03:19:30;;;;;;;2.30;2.05;;;-3.40;99.90;;;;;;5148875;27;21069;-61
2022/04/18 03:22:10;;;;;;;1.75;1.65;;;-3.40;99.90;;;;;;5153268;27;20563;-61
2022/04/18 03:24:51;;;;;;;2.28;1.83;;;-3.40;99.90;;;;;;5117417;27;20546;-61
2022/04/18 03:27:33;;;;;;;1.85;1.75;;;-3.40;99.90;;;;;;5162045;27;20538;-61
2022/04/18 03:30:11;;;;;;;1.88;1.77;;;-3.50;99.90;;;;;;5118135;27;20651;-62
2022/04/18 03:32:57;;;;;;;1.83;1.63;;;-3.60;99.90;;;;;;5147156;27;21048;-61
2022/04/18 03:35:35;;;;;;;2.35;1.58;;;-3.60;99.90;;;;;;5162261;27;20546;-62
2022/04/18 03:41:10;;;;;;;1.60;1.50;;;-3.70;99.90;;;;;;5119876;27;20659;-61
2022/04/18 03:43:51;;;;;;;1.60;1.50;;;-3.80;99.90;;;;;;5161840;27;20609;-61
2022/04/18 03:46:31;;;;;;;1.90;1.75;;;-3.90;99.90;;;;;;5121644;27;20566;-61
2022/04/18 03:49:09;;;;;;;1.45;1.35;;;-4.00;99.90;;;;;;5162805;27;20530;-61
2022/04/18 03:51:51;;;;;;;2.08;1.67;;;-4.00;99.90;;;;;;5156742;27;20554;-61
2022/04/18 03:54:30;;;;;;;1.98;1.38;;;-4.00;99.90;;;;;;5174878;27;20520;-61
2022/04/18 03:57:08;;;;;;;1.55;1.45;;;-4.00;99.90;;;;;;5161986;27;20541;-61
2022/04/18 04:00:08;;;;;;;2.53;1.70;;;-3.90;99.90;;;;;;5161795;27;20972;-61
2022/04/18 04:02:52;;;;;;;1.55;1.45;;;-3.90;99.90;;;;;;5147818;27;20559;-62
2022/04/18 04:05:40;;;;;;;1.83;1.73;;;-3.80;99.90;;;;;;5141563;27;20569;-61
2022/04/18 04:08:22;;;;;;;1.67;1.42;;;-3.80;99.90;;;;;;5151264;27;20534;-61
2022/04/18 04:11:03;;;;;;;1.80;1.70;;;-3.80;99.90;;;;;;5144365;27;20554;-61
2022/04/18 04:13:46;;;;;;;1.58;1.48;;;-3.80;99.90;;;;;;5162508;27;20689;-61
2022/04/18 04:16:29;;;;;;;1.60;1.50;;;-3.80;99.90;;;;;;5162231;27;20641;-61
2022/04/18 04:19:09;;;;;;;1.83;1.70;;;-3.80;99.90;;;;;;5160112;27;20546;-61
2022/04/18 04:21:47;;;;;;;4.05;1.45;;;-3.90;99.90;;;;;;5157358;27;20551;-61
2022/04/18 04:24:27;;;;;;;1.40;1.30;;;-3.90;99.90;;;;;;5161704;27;20959;-61
2022/04/18 04:27:08;;;;;;;1.38;1.27;;;-3.80;99.90;;;;;;5125925;27;20604;-61
2022/04/18 04:29:46;;;;;;;1.80;1.70;;;-3.80;99.90;;;;;;5161635;27;20885;-61
2022/04/18 04:32:32;;;;;;;1.50;1.40;;;-3.60;99.90;;;;;;5150558;27;21018;-61
2022/04/18 04:35:12;;;;;;;1.58;1.48;;;-3.50;99.90;;;;;;5160379;27;20620;-61
2022/04/18 04:37:57;;;;;;;1.60;1.50;;;-3.50;99.90;;;;;;5162638;27;20666;-61
2022/04/18 04:40:53;;;;;;;2.60;1.40;;;-3.40;99.90;;;;;;5162106;27;21073;-61
2022/04/18 04:43:39;;;;;;;1.42;1.33;;;-3.30;99.90;;;;;;5141281;27;20953;-61
2022/04/18 04:46:20;;;;;;;1.70;1.60;;;-3.10;99.90;;;;;;5148346;27;20619;-61
2022/04/18 04:49:07;;;;;;;1.52;1.42;;;-2.90;99.90;;;;;;5148682;27;20547;-61
2022/04/18 04:51:46;;;;;;;2.10;1.60;;;-2.80;99.90;;;;;;5141275;27;20571;-61
2022/04/18 04:54:26;;;;;;;1.98;1.73;;;-2.70;99.90;;;;;;5141426;27;20559;-61
2022/04/18 04:57:06;;;;;;;1.40;1.30;;;-2.50;99.90;;;;;;5162064;27;20917;-61
2022/04/18 05:00:06;;;;;;;1.83;1.67;;;-2.50;99.90;;;;;;5102883;27;20553;-61
2022/04/18 05:03:03;;;;;;;1.50;1.40;;;-2.20;99.90;;;;;;5138452;27;21117;-61
2022/04/18 05:05:42;;;;;;;1.55;1.40;;;-2.10;99.90;;;;;;5161863;27;20550;-61
2022/04/18 05:08:35;;;;;;;1.67;1.58;;;-2.00;99.90;;;;;;5162100;27;20553;-61
2022/04/18 05:11:15;;;;;;;1.42;1.33;;;-1.90;99.90;;;;;;5154670;27;20827;-61
2022/04/18 05:13:59;;;;;;;2.75;1.50;;;-1.80;99.90;;;;;;5136079;27;21021;-61
2022/04/18 05:16:54;;;;;;;1.50;1.40;;;-1.50;99.90;;;;;;5142736;27;20563;-60
2022/04/18 05:19:51;;;;;;;2.15;1.95;;;-1.30;99.90;;;;;;5157635;27;20687;-61
2022/04/18 05:22:36;;;;;;;1.70;1.60;;;-1.10;99.90;;;;;;5149952;27;20562;-61
2022/04/18 05:25:16;;;;;;;2.70;2.00;;;-0.90;99.90;;;;;;5154629;27;20846;-61
2022/04/18 05:27:57;;;;;;;1.67;1.58;;;-0.70;99.90;;;;;;5161779;27;20983;-61
2022/04/18 05:30:47;;;;;;;1.60;1.50;;;-0.60;99.90;;;;;;5161395;27;20533;-60
2022/04/18 05:33:26;;;;;;;1.75;1.63;;;-0.40;99.90;;;;;;5097202;27;20586;-60
2022/04/18 05:36:20;;;;;;;2.65;1.95;;;-0.40;99.90;;;;;;5156862;27;20566;-61
2022/04/18 05:39:00;;;;;;;1.63;1.52;;;-0.30;99.90;;;;;;5161906;27;20609;-60
2022/04/18 05:41:45;;;;;;;2.05;1.95;;;-0.30;99.90;;;;;;5150598;27;20634;-60
2022/04/18 05:44:28;;;;;;;1.98;1.88;;;-0.20;99.90;;;;;;5148282;27;20616;-60
2022/04/18 05:47:11;;;;;;;2.40;2.20;;;-0.10;99.90;;;;;;5160303;27;20541;-60
2022/04/18 05:49:49;;;;;;;1.85;1.58;;;0.00;99.90;;;;;;5113997;27;20663;-60
2022/04/18 05:52:27;;;;;;;1.88;1.77;;;0.10;99.90;;;;;;5104889;27;20571;-58
2022/04/18 05:55:15;;;;;;;2.10;1.90;;;0.20;99.90;;;;;;5160460;27;20547;-61
2022/04/18 05:57:53;;;;;;;3.97;2.13;;;0.40;99.90;;;;;;5138978;27;21087;-60
2022/04/18 06:00:34;;;;;;;3.05;2.00;;;0.60;99.90;;;;;;5156915;27;20965;-60
2022/04/18 06:03:13;;;;;;;2.42;2.20;;;0.80;99.90;;;;;;5141234;27;20550;-60
2022/04/18 06:05:53;;;;;;;2.25;2.05;;;1.00;99.90;;;;;;5144263;27;20604;-60
2022/04/18 06:08:33;;;;;;;2.58;2.38;;;1.20;99.90;;;;;;5160228;27;20506;-60
2022/04/18 06:11:24;;;;;;;2.28;2.08;;;1.50;99.90;;;;;;5145925;27;20639;-60
2022/04/18 06:14:11;;;;;;;3.35;2.38;;;1.70;99.90;;;;;;5140191;27;20567;-60
2022/04/18 06:16:55;;;;;;;2.35;2.15;;;1.80;99.90;;;;;;5160484;27;20545;-60
2022/04/18 06:19:36;;;;;;;2.53;2.38;;;2.00;99.90;;;;;;5156910;27;20662;-60
2022/04/18 06:22:16;;;;;;;2.50;2.30;;;2.10;99.90;;;;;;5085192;27;20561;-60
2022/04/18 06:24:56;;;;;;;2.22;2.03;;;2.10;99.90;;;;;;5146657;27;20580;-60
2022/04/18 06:27:39;;;;;;;2.00;1.90;;;2.20;99.90;;;;;;5163146;27;20608;-60
2022/04/18 06:30:17;;;;;;;2.42;2.22;;;2.20;99.90;;;;;;5160512;27;20529;-60
2022/04/18 06:33:24;;;;;;;2.38;2.22;;;2.20;99.90;;;;;;5140894;27;21076;-60
2022/04/18 06:36:02;;;;;;;2.05;1.88;;;2.40;99.90;;;;;;5105151;27;20982;-60
2022/04/18 06:38:44;;;;;;;2.83;2.53;;;2.60;99.90;;;;;;5161080;27;20529;-60
2022/04/18 06:41:31;;;;;;;2.17;1.98;;;2.90;99.90;;;;;;5157819;27;20542;-60
2022/04/18 06:44:14;;;;;;;2.38;2.00;;;3.20;99.90;;;;;;5159947;27;20529;-60
2022/04/18 06:47:05;;;;;;;2.33;2.00;;;3.50;99.90;;;;;;5160593;27;21091;-60
2022/04/18 06:50:12;;;;;;;2.28;2.08;;;3.80;99.90;;;;;;5139876;27;20815;-60
2022/04/18 06:53:10;;;;;;;2.33;2.10;;;4.10;99.90;;;;;;5143810;27;20590;-60
2022/04/18 06:59:31;;;;;;;2.78;2.00;;;4.60;99.90;;;;;;5095497;27;20648;-60
2022/04/18 07:02:10;;;;;;;2.45;2.25;;;4.80;99.90;;;;;;5152543;27;21072;-59
2022/04/18 07:04:51;;;;;;;2.22;2.13;;;4.90;99.90;;;;;;5157179;27;20620;-60
2022/04/18 07:07:30;;;;;;;2.58;2.38;;;5.10;99.90;;;;;;5159029;27;20555;-60
2022/04/18 07:10:09;;;;;;;2.10;1.90;;;5.20;99.90;;;;;;5160767;27;20618;-60
2022/04/18 07:12:48;;;;;;;2.95;1.80;;;5.40;99.90;;;;;;5140772;27;20879;-60
2022/04/18 07:15:26;;;;;;;2.08;1.60;;;5.50;99.90;;;;;;5160119;27;20553;-60
2022/04/18 07:18:09;;;;;;;2.83;2.22;;;5.60;99.90;;;;;;5161638;27;20616;-60
2022/04/18 07:20:48;;;;;;;1.90;1.80;;;5.70;99.90;;;;;;5159911;27;21113;-59
2022/04/18 07:23:29;;;;;;;2.10;1.80;;;5.80;99.90;;;;;;5137947;27;20615;-60
2022/04/18 07:26:10;;;;;;;2.08;1.98;;;5.90;99.90;;;;;;5152468;27;20569;-60
2022/04/18 07:28:50;;;;;;;1.60;1.50;;;6.00;99.90;;;;;;5155923;27;20604;-60
2022/04/18 07:31:31;;;;;;;2.03;1.75;;;6.10;99.90;;;;;;5148542;27;20543;-60
2022/04/18 07:34:10;;;;;;;3.25;2.17;;;6.30;99.90;;;;;;5160901;27;20537;-60
2022/04/18 07:36:50;;;;;;;1.83;1.73;;;6.30;99.90;;;;;;5156541;27;21078;-60
2022/04/18 07:39:30;;;;;;;2.10;1.90;;;6.40;99.90;;;;;;5155734;22;20619;-60
2022/04/18 07:42:09;;;;;;;2.03;1.83;;;6.50;99.90;;;;;;5113674;27;20549;-60
2022/04/18 07:44:51;;;;;;;2.10;2.00;;;6.60;99.90;;;;;;5157163;27;20551;-59
2022/04/18 07:47:31;;;;;;;2.17;1.98;;;6.80;99.90;;;;;;5114502;27;20594;-60
2022/04/18 07:50:09;;;;;;;2.05;1.80;;;6.90;99.90;;;;;;5130381;27;20623;-59
2022/04/18 07:52:49;;;;;;;1.85;1.75;;;7.10;99.90;;;;;;5115229;27;20585;-59
2022/04/18 07:55:27;;;;;;;2.65;1.83;;;7.20;99.90;;;;;;5149986;27;20631;-60
2022/04/18 07:58:07;;;;;;;2.03;1.80;;;7.30;99.90;;;;;;5114168;27;20557;-59
2022/04/18 08:00:45;;;;;;;1.80;1.70;;;7.50;99.90;;;;;;5147895;27;20626;-60
2022/04/18 08:03:25;;;;;;;1.92;1.83;;;7.70;99.90;;;;;;5106799;27;21039;-60
2022/04/18 08:06:08;;;;;;;1.75;1.65;;;7.80;99.90;;;;;;5133678;27;20644;-60
2022/04/18 08:09:08;;;;;;;3.95;1.92;;;7.90;99.90;;;;;;5139360;27;20608;-61
2022/04/18 08:11:48;;;;;;;2.08;1.90;;;8.10;99.90;;;;;;5092181;27;20610;-61
2022/04/18 08:14:34;;;;;;;2.22;2.10;;;8.30;99.90;;;;;;5148290;27;20588;-61
2022/04/18 08:17:17;;;;;;;2.03;1.80;;;8.40;99.90;;;;;;5114072;27;20624;-59
2022/04/18 08:19:59;;;;;;;2.00;1.80;;;8.50;99.90;;;;;;5096700;27;20673;-59
2022/04/18 08:22:37;;;;;;;1.92;1.60;;;8.70;99.90;;;;;;5110186;27;20557;-61
2022/04/18 08:25:34;;;;;;;2.78;1.40;;;8.80;99.90;;;;;;5102816;27;21188;-61
2022/04/18 08:28:37;;;;;;;1.80;1.70;;;8.90;99.90;;;;;;5109164;27;20907;-60
2022/04/18 08:31:17;;;;;;;2.03;1.83;;;9.10;99.90;;;;;;5149043;27;20614;-59
2022/04/18 08:34:17;;;;;;;1.80;1.40;;;9.30;99.90;;;;;;5114264;27;20543;-61
2022/04/18 08:36:55;;;;;;;1.48;1.38;;;9.50;99.90;;;;;;5156019;27;20598;-59
2022/04/18 08:39:35;;;;;;;1.50;1.40;;;9.70;99.90;;;;;;5100047;27;20704;-60
2022/04/18 08:42:21;;;;;;;1.30;1.20;;;9.70;99.90;;;;;;5154504;27;21040;-61
2022/04/18 08:45:02;;;;;;;2.28;1.38;;;9.90;99.90;;;;;;5114064;27;20557;-61
2022/04/18 08:53:38;;;;;;;1.40;1.30;;;10.30;99.90;;;;;;5098127;22;21107;-58
2022/04/18 08:56:18;;;;;;;2.28;1.65;;;10.60;99.90;;;;;;5131610;27;21467;-59
2022/04/18 08:58:59;;;;;;;1.80;1.40;;;10.80;99.90;;;;;;5159072;27;20546;-59
2022/04/18 09:01:50;;;;;;;1.42;1.33;;;11.00;99.90;;;;;;5160515;27;21162;-59
2022/04/18 09:04:33;;;;;;;1.50;1.40;;;11.20;99.90;;;;;;5160469;27;20534;-60
2022/04/18 09:07:14;;;;;;;1.45;1.35;;;11.50;99.90;;;;;;5115531;27;20546;-60
2022/04/18 09:09:58;;;;;;;1.20;1.10;;;11.40;99.90;;;;;;5153659;27;20976;-60
2022/04/18 09:12:42;;;;;;;1.58;1.27;;;11.20;99.90;;;;;;5152606;27;20558;-59
2022/04/18 09:15:41;;;;;;;1.25;1.15;;;11.30;99.90;;;;;;5160949;27;20543;-59
2022/04/18 09:18:24;;;;;;;1.63;1.35;;;11.30;99.90;;;;;;5158602;27;20605;-60
2022/04/18 09:21:15;;;;;;;1.40;1.27;;;11.60;99.90;;;;;;5160005;27;20562;-59
2022/04/18 09:23:55;;;;;;;1.42;1.33;;;11.80;99.90;;;;;;5140243;27;20990;-59
2022/04/18 09:26:44;;;;;;;2.55;1.15;;;11.80;99.90;;;;;;5116214;27;20856;-59
2022/04/18 09:29:22;;;;;;;2.42;1.13;;;11.70;99.90;;;;;;5146456;27;20630;-60
2022/04/18 09:32:01;;;;;;;1.88;1.77;;;11.60;99.90;;;;;;5159503;27;20974;-60
2022/04/18 09:35:00;;;;;;;1.50;1.40;;;11.70;99.90;;;;;;5164268;27;20630;-60
2022/04/18 09:37:40;;;;;;;2.03;1.40;;;11.90;99.90;;;;;;5150369;27;21084;-60
2022/04/18 09:40:23;;;;;;;1.30;1.20;;;12.10;99.90;;;;;;5156424;27;20616;-59
2022/04/18 09:43:01;;;;;;;1.25;1.15;;;12.40;99.20;;;;;;5143872;27;20642;-60
2022/04/18 09:45:42;;;;;;;1.65;1.38;;;12.70;98.40;;;;;;5159211;27;20315;-59
2022/04/18 09:48:21;;;;;;;1.67;1.27;;;13.20;97.80;;;;;;5101186;27;21041;-59
2022/04/18 09:51:08;;;;;;;0.70;0.70;;;13.30;94.30;;;;;;5151762;27;20766;-60
2022/04/18 09:54:05;;;;;;;1.30;1.20;;;13.50;93.80;;;;;;5139271;27;21047;-60
2022/04/18 09:56:51;;;;;;;1.02;1.00;;;13.50;88.80;;;;;;5160496;27;20818;-60
2022/04/18 09:59:31;;;;;;;1.92;1.15;;;13.30;90.00;;;;;;5158895;27;20565;-60
2022/04/18 10:02:14;;;;;;;1.25;1.15;;;13.50;90.60;;;;;;5152693;27;20645;-60
2022/04/18 10:04:54;;;;;;;1.05;1.00;;;13.70;85.80;;;;;;5111494;27;21094;-60
2022/04/18 10:07:33;;;;;;;1.17;1.08;;;13.80;81.50;;;;;;5154792;27;20644;-60
2022/04/18 10:10:11;;;;;;;1.60;0.93;;;13.70;83.20;;;;;;5107488;27;21090;-60
2022/04/18 10:12:50;;;;;;;1.00;0.93;;;13.50;83.90;;;;;;5150142;27;20977;-60
2022/04/18 10:15:30;;;;;;;1.10;1.10;;;13.50;87.40;;;;;;5147850;27;21045;-60
2022/04/18 10:18:10;;;;;;;1.27;1.10;;;13.50;84.70;;;;;;5113336;27;20558;-60
2022/04/18 10:20:59;;;;;;;1.20;1.10;;;13.60;80.80;;;;;;5151278;27;20605;-60
2022/04/18 10:24:13;;;;;;;1.17;1.00;;;13.70;79.60;;;;;;5136177;27;21004;-60
2022/04/18 10:27:24;;;;;;;1.50;1.25;;;13.80;82.00;;;;;;5144398;27;21061;-60
2022/04/18 10:30:03;;;;;;;1.48;1.38;;;13.70;79.00;;;;;;5158188;27;20557;-60
2022/04/18 10:32:42;;;;;;;1.75;0.98;;;13.50;76.10;;;;;;5147036;27;20637;-60
2022/04/18 10:35:23;;;;;;;1.13;0.95;;;13.50;75.60;;;;;;5138371;27;20635;-60
2022/04/18 10:38:04;;;;;;;1.20;1.00;;;13.40;80.70;;;;;;5146523;27;20554;-60
2022/04/18 10:40:43;;;;;;;1.02;1.00;;;13.30;82.10;;;;;;5137783;27;20539;-60
2022/04/18 10:43:58;;;;;;;1.10;1.02;;;13.30;77.90;;;;;;5128842;27;20627;-60
2022/04/18 10:46:37;;;;;;;1.20;1.10;;;13.50;78.00;;;;;;5147586;27;20622;-60
2022/04/18 10:49:17;;;;;;;1.10;0.98;;;13.70;82.20;;;;;;5152530;27;20549;-60
2022/04/18 10:51:56;;;;;;;1.10;1.00;;;13.80;77.40;;;;;;5136887;27;20542;-60
2022/04/18 10:54:34;;;;;;;1.40;1.30;;;13.80;76.40;;;;;;5159844;27;20915;-60
2022/04/18 10:57:12;;;;;;;1.48;1.30;;;14.00;75.10;;;;;;5158433;27;20640;-60
2022/04/18 10:59:51;;;;;;;1.35;1.23;;;14.20;70.50;;;;;;5155580;27;20605;-60
2022/04/18 11:02:41;;;;;;;1.20;1.10;;;14.30;73.50;;;;;;5154591;27;20567;-60
2022/04/18 11:05:36;;;;;;;1.25;1.10;;;14.00;70.90;;;;;;5135672;27;20630;-60
2022/04/18 11:08:25;;;;;;;1.20;1.10;;;13.90;76.00;;;;;;5156352;27;21049;-60
2022/04/18 11:11:05;;;;;;;1.30;1.20;;;13.90;72.50;;;;;;5156064;27;20601;-60
2022/04/18 11:13:47;;;;;;;1.27;1.00;;;14.00;68.80;;;;;;5140246;27;20566;-58
2022/04/18 11:16:55;;;;;;;0.90;0.90;;;14.00;74.20;;;;;;5157350;27;20547;-60
2022/04/18 11:19:37;;;;;;;3.53;1.20;;;14.00;67.20;;;;;;5154173;27;20658;-60
2022/04/18 11:22:21;;;;;;;3.08;1.05;;;14.10;66.20;;;;;;5105161;27;20996;-60
2022/04/18 11:25:01;;;;;;;0.93;0.88;;;14.30;66.00;;;;;;5154933;27;20563;-60
2022/04/18 11:27:41;;;;;;;1.55;1.00;;;14.60;66.10;;;;;;5158638;27;21029;-60
2022/04/18 11:30:20;;;;;;;1.50;1.40;;;15.00;67.40;;;;;;5158575;27;20593;-60
2022/04/18 11:33:03;;;;;;;1.65;1.10;;;15.00;62.70;;;;;;5145762;27;20584;-60
2022/04/18 11:35:43;;;;;;;1.35;1.17;;;15.20;64.10;;;;;;5159593;27;20545;-60
2022/04/18 11:38:26;;;;;;;1.50;1.17;;;15.40;65.00;;;;;;5139586;27;20579;-61
2022/04/18 11:41:11;;;;;;;1.10;0.80;;;15.40;63.30;;;;;;5159171;27;20612;-61
2022/04/18 11:43:57;;;;;;;1.63;1.00;;;15.30;61.80;;;;;;5142048;27;20570;-61
2022/04/18 11:46:35;;;;;;;1.20;1.10;;;15.50;61.80;;;;;;5153116;27;20561;-59
2022/04/18 11:49:14;;;;;;;0.73;0.73;;;15.40;62.20;;;;;;5113017;27;20589;-60
2022/04/18 11:51:53;;;;;;;1.70;1.23;;;14.90;60.20;;;;;;5144114;27;20617;-59
2022/04/18 11:54:32;;;;;;;3.63;1.00;;;14.80;64.70;;;;;;5127878;27;20893;-59
2022/04/18 11:57:17;;;;;;;3.05;1.10;;;15.00;66.90;;;;;;5156060;27;20549;-60
2022/04/18 11:59:55;;;;;;;2.42;1.20;;;15.30;62.00;;;;;;5103363;27;20669;-59
2022/04/18 12:08:36;;;;;;;1.55;1.17;;;15.20;59.90;;;;;;5133996;27;20462;-59
2022/04/18 12:11:16;;;;;;;1.60;1.45;;;15.30;61.50;;;;;;5135871;27;20969;-57
2022/04/18 12:13:55;;;;;;;1.20;1.10;;;15.20;59.50;;;;;;5102672;27;20574;-59
2022/04/18 12:16:35;;;;;;;1.08;1.08;;;15.10;60.00;;;;;;5157491;27;21005;-59
2022/04/18 12:19:15;;;;;;;1.07;0.90;;;15.10;58.30;;;;;;5123115;22;20936;-62
2022/04/18 12:21:54;;;;;;;1.05;0.80;;;15.00;58.20;;;;;;5107658;27;20632;-61
2022/04/18 12:24:41;;;;;;;0.73;0.73;;;14.90;58.70;;;;;;5114406;27;20667;-63
2022/04/18 12:27:37;;;;;;;0.73;0.73;;;14.90;57.60;;;;;;5146885;27;21004;-61
2022/04/18 12:30:17;;;;;;;1.25;1.15;;;15.40;56.60;;;;;;5159264;27;20596;-61
2022/04/18 12:33:10;;;;;;;0.80;0.80;;;15.60;54.30;;;;;;5115749;27;20659;-61
2022/04/18 12:35:51;;;;;;;0.95;0.95;;;15.80;54.20;;;;;;5106711;27;20577;-62
2022/04/18 12:38:34;;;;;;;0.70;0.70;;;15.70;57.70;;;;;;5103890;27;20655;-61
2022/04/18 12:41:12;;;;;;;0.90;0.90;;;15.80;55.40;;;;;;5114911;27;20570;-62
2022/04/18 12:43:50;;;;;;;0.75;0.75;;;16.00;53.80;;;;;;5155457;27;20537;-61
2022/04/18 12:46:31;;;;;;;1.15;0.88;;;15.80;52.20;;;;;;5114603;27;20601;-63
2022/04/18 12:49:11;;;;;;;0.98;0.80;;;15.60;55.10;;;;;;5137781;27;21151;-60
2022/04/18 12:51:52;;;;;;;0.82;0.82;;;15.50;53.50;;;;;;5155628;27;20562;-63
2022/04/18 12:54:31;;;;;;;0.52;0.52;;;15.70;56.90;;;;;;5115133;27;20597;-61
2022/04/18 12:57:19;;;;;;;1.80;1.20;;;16.40;55.90;;;;;;5115960;27;20617;-60
2022/04/18 13:00:09;;;;;;;1.10;0.70;;;17.00;50.90;;;;;;5115167;27;20600;-63
2022/04/18 13:03:03;;;;;;;0.77;0.77;;;17.50;51.90;;;;;;5147719;27;21016;-62
2022/04/18 13:05:47;;;;;;;1.02;0.90;;;17.60;48.80;;;;;;5108800;27;20575;-61
2022/04/18 13:08:26;;;;;;;0.90;0.52;;;17.80;48.30;;;;;;5097684;27;20692;-61
2022/04/18 13:11:04;;;;;;;0.90;0.70;;;17.50;48.90;;;;;;5148220;27;20542;-61
2022/04/18 13:13:42;;;;;;;0.68;0.68;;;17.30;53.90;;;;;;5098173;27;20954;-62
2022/04/18 13:16:24;;;;;;;0.73;0.70;;;17.30;47.20;;;;;;5158706;27;20533;-61
2022/04/18 13:19:05;;;;;;;1.10;0.90;;;17.20;46.90;;;;;;5101118;27;20619;-62
2022/04/18 13:21:44;;;;;;;2.50;0.85;;;17.20;46.10;;;;;;5114590;27;20593;-61
2022/04/18 13:24:23;;;;;;;0.70;0.70;;;17.40;46.30;;;;;;5148433;27;20538;-62
2022/04/18 13:27:01;;;;;;;0.90;0.90;;;17.40;46.30;;;;;;5115142;27;20600;-61
2022/04/18 13:29:39;;;;;;;0.80;0.80;;;16.90;46.20;;;;;;5116351;27;20556;-61
2022/04/18 13:32:17;;;;;;;1.20;0.73;;;16.50;47.70;;;;;;5160174;27;20563;-61
2022/04/18 13:34:56;;;;;;;1.98;0.65;;;16.40;49.10;;;;;;5157220;27;20551;-62
2022/04/18 13:37:34;;;;;;;0.75;0.75;;;16.40;47.60;;;;;;5116046;27;20579;-62
2022/04/18 13:40:13;;;;;;;1.10;0.80;;;16.50;48.60;;;;;;5155630;27;21069;-61
2022/04/18 13:42:52;;;;;;;0.60;0.60;;;16.40;49.10;;;;;;5157535;27;20948;-63
2022/04/18 13:45:30;;;;;;;0.80;0.60;;;16.70;50.00;;;;;;5115913;27;20605;-62
2022/04/18 13:48:09;;;;;;;0.63;0.63;;;17.00;49.80;;;;;;5149904;27;20620;-61
2022/04/18 13:50:47;;;;;;;0.75;0.75;;;17.10;49.70;;;;;;5139196;27;20587;-61
2022/04/18 13:53:25;;;;;;;0.73;0.73;;;17.40;48.60;;;;;;5113199;27;20624;-61
2022/04/18 13:56:03;;;;;;;0.95;0.80;;;17.40;47.00;;;;;;5093249;27;21101;-61
2022/04/18 13:58:42;;;;;;;1.00;0.80;;;17.50;47.50;;;;;;5151452;27;20552;-61
2022/04/18 14:01:20;;;;;;;0.55;0.55;;;17.40;46.60;;;;;;5131388;27;20766;-61
2022/04/18 14:03:58;;;;;;;0.70;0.63;;;17.30;47.10;;;;;;5142010;27;20608;-62
2022/04/18 14:06:36;;;;;;;0.93;0.82;;;17.50;51.60;;;;;;5115904;27;20605;-62
2022/04/18 14:09:14;;;;;;;0.63;0.63;;;17.80;45.50;;;;;;5143608;27;20550;-64
2022/04/18 14:11:53;;;;;;;0.55;0.55;;;17.90;45.40;;;;;;5115875;27;20546;-61
2022/04/18 14:20:23;;;;;;;0.70;0.70;;;17.10;46.60;;;;;;5127531;27;20589;-62
2022/04/18 14:23:02;;;;;;;0.57;0.57;;;16.60;48.50;;;;;;5115896;27;20605;-62
2022/04/18 14:25:41;;;;;;;1.35;0.70;;;16.20;48.50;;;;;;5139707;27;20527;-62
2022/04/18 14:28:20;;;;;;;0.60;0.60;;;16.10;49.20;;;;;;5088154;27;20635;-61
2022/04/18 14:30:58;;;;;;;0.60;0.60;;;16.00;49.60;;;;;;5148043;27;20633;-60
2022/04/18 14:33:37;;;;;;;0.95;0.80;;;16.20;48.40;;;;;;5121742;27;20555;-61